Time;durP1;ratioP1;P1;durP2;ratioP2;P2;SDS_P1;SDS_P2;PMS_P1;PMS_P2;Temp;Humidity;BMP_temperature;BMP_pressure;BME280_temperature;BME280_humidity;BME280_pressure;Samples;Min_cycle;Max_cycle;Signal;HPM_P1;HPM_P2
2023/06/03 00:04:29;;;;;;;3.83;1.00;;;;;;;12.67;53.71;98164.22;10627447;27;20540;-72
2023/06/03 00:09:50;;;;;;;4.05;1.30;;;;;;;12.61;54.24;98161.00;10598538;27;20118;-70
2023/06/03 00:15:11;;;;;;;4.57;1.20;;;;;;;12.58;54.15;98160.13;10611847;27;20096;-69
2023/06/03 00:20:35;;;;;;;3.00;1.15;;;;;;;12.51;54.71;98157.53;10597434;27;20088;-69
2023/06/03 00:25:56;;;;;;;3.78;1.20;;;;;;;12.46;54.46;98164.94;10611875;27;20115;-70
2023/06/03 00:31:17;;;;;;;3.85;1.60;;;;;;;12.37;54.74;98162.94;10611263;27;20544;-70
2023/06/03 00:36:39;;;;;;;4.25;1.02;;;;;;;12.35;54.84;98173.97;10596532;27;20110;-70
2023/06/03 00:42:00;;;;;;;3.42;1.10;;;;;;;12.28;54.66;98175.63;10610894;27;20176;-70
2023/06/03 00:47:20;;;;;;;5.22;1.42;;;;;;;12.19;55.49;98167.28;10595828;27;20119;-70
2023/06/03 00:52:41;;;;;;;3.08;1.17;;;;;;;12.15;55.39;98178.19;10581911;27;20371;-70
2023/06/03 00:58:02;;;;;;;4.85;1.60;;;;;;;12.15;55.38;98176.13;10596090;27;20110;-70
2023/06/03 01:03:22;;;;;;;4.22;1.30;;;;;;;12.03;55.54;98167.66;10595350;27;20279;-69
2023/06/03 01:09:16;;;;;;;3.95;1.38;;;;;;;12.01;56.11;98183.56;10609706;27;20034;-72
2023/06/03 01:14:48;;;;;;;3.08;1.23;;;;;;;11.95;55.81;98188.72;10609601;27;20127;-72
2023/06/03 01:20:10;;;;;;;4.68;1.63;;;;;;;11.84;56.06;98178.19;10595367;27;20126;-72
2023/06/03 01:25:30;;;;;;;4.30;1.05;;;;;;;11.75;56.30;98183.19;10594877;27;20039;-72
2023/06/03 01:30:51;;;;;;;5.55;1.52;;;;;;;11.69;56.13;98190.44;10594885;27;20122;-72
2023/06/03 01:36:12;;;;;;;7.57;1.50;;;;;;;11.61;57.03;98185.00;10594828;27;20552;-72
2023/06/03 01:41:33;;;;;;;5.38;1.77;;;;;;;11.57;56.48;98186.75;10580487;27;20512;-70
2023/06/03 01:46:54;;;;;;;4.68;1.48;;;;;;;11.41;56.63;98177.97;10580849;27;20067;-69
2023/06/03 01:52:15;;;;;;;8.57;1.83;;;;;;;11.33;57.53;98185.78;10594723;28;20062;-72
2023/06/03 01:57:36;;;;;;;4.22;1.50;;;;;;;11.23;57.55;98182.25;10580319;28;20537;-70
2023/06/03 02:02:56;;;;;;;7.57;1.77;;;;;;;11.16;57.73;98197.84;10580172;28;20135;-70
2023/06/03 02:08:17;;;;;;;4.88;1.50;;;;;;;11.06;58.56;98192.25;10593945;28;20123;-70
2023/06/03 02:13:38;;;;;;;5.40;2.05;;;;;;;10.98;58.63;98202.09;10623817;28;20118;-72
2023/06/03 02:19:03;;;;;;;4.47;1.50;;;;;;;10.83;59.43;98201.06;10593829;28;20557;-70
2023/06/03 02:24:23;;;;;;;6.15;1.85;;;;;;;10.75;59.91;98206.06;10594462;28;20454;-70
2023/06/03 02:29:45;;;;;;;5.55;2.10;;;;;;;10.69;59.71;98213.22;10593818;28;20548;-70
2023/06/03 02:35:05;;;;;;;6.03;1.67;;;;;;;10.61;59.77;98213.38;10595616;27;20148;-70
2023/06/03 02:40:27;;;;;;;8.10;1.83;;;;;;;10.53;60.30;98213.50;10601609;27;20456;-70
2023/06/03 02:45:47;;;;;;;3.40;1.50;;;;;;;10.50;60.81;98219.50;10587101;27;20188;-70
2023/06/03 02:51:08;;;;;;;4.88;1.27;;;;;;;10.40;60.57;98225.06;10630862;27;20039;-71
2023/06/03 02:56:29;;;;;;;4.03;1.88;;;;;;;10.32;60.74;98233.56;10600674;27;20106;-70
2023/06/03 03:01:50;;;;;;;4.88;1.42;;;;;;;10.24;61.23;98235.00;10615003;27;20067;-71
2023/06/03 03:07:10;;;;;;;3.25;1.60;;;;;;;10.29;61.51;98229.16;10600366;27;20071;-72
2023/06/03 03:12:31;;;;;;;4.68;1.60;;;;;;;10.29;60.96;98239.56;10614400;27;20532;-70
2023/06/03 03:17:53;;;;;;;6.25;1.75;;;;;;;10.29;61.08;98240.31;10614207;27;20110;-72
2023/06/03 03:23:14;;;;;;;6.45;1.77;;;;;;;10.30;60.77;98246.63;10600033;27;20172;-70
2023/06/03 03:28:36;;;;;;;8.75;1.60;;;;;;;10.28;60.42;98254.84;10614071;27;20111;-72
2023/06/03 03:33:57;;;;;;;7.65;1.88;;;;;;;10.30;60.32;98252.19;10599432;27;20118;-71
2023/06/03 03:39:18;;;;;;;5.53;1.35;;;;;;;10.33;60.00;98256.63;10599177;27;20152;-72
2023/06/03 03:44:43;;;;;;;5.15;1.90;;;;;;;10.35;59.95;98254.00;10614001;27;20118;-72
2023/06/03 03:50:07;;;;;;;5.30;1.35;;;;;;;10.36;58.58;98249.88;10598375;27;20118;-69
2023/06/03 03:55:29;;;;;;;;;;;;;;;10.36;57.66;98244.31;10585529;27;20085;-70
2023/06/03 04:00:54;;;;;;;5.22;1.50;;;;;;;10.41;57.33;98260.03;10627572;27;19919;-70
2023/06/03 04:06:36;;;;;;;;;;;;;;;10.39;56.64;98262.66;10598592;27;20055;-70
2023/06/03 04:11:57;;;;;;;6.53;1.40;;;;;;;10.42;54.97;98266.34;10611932;27;19957;-70
2023/06/03 04:17:20;;;;;;;3.13;1.45;;;;;;;10.41;54.23;98273.25;10612004;27;20135;-72
2023/06/03 04:22:41;;;;;;;4.17;0.97;;;;;;;10.42;53.81;98280.28;10597597;27;20465;-72
2023/06/03 04:28:03;;;;;;;2.97;0.93;;;;;;;10.56;51.89;98290.50;10597364;27;20058;-71
2023/06/03 04:33:25;;;;;;;4.38;1.10;;;;;;;10.46;49.95;98278.56;10611189;27;20137;-72
2023/06/03 04:38:47;;;;;;;4.95;0.88;;;;;;;10.51;49.91;98287.97;10583266;27;20122;-72
2023/06/03 04:44:08;;;;;;;5.07;1.08;;;;;;;10.63;48.93;98286.13;10582301;27;20114;-72
2023/06/03 04:49:32;;;;;;;6.20;0.80;;;;;;;10.74;47.92;98291.16;10596606;27;20068;-70
2023/06/03 04:54:53;;;;;;;2.70;0.75;;;;;;;11.06;47.40;98306.78;10596586;27;20163;-70
2023/06/03 05:00:19;;;;;;;6.38;0.75;;;;;;;11.27;46.40;98309.03;10595634;27;20062;-71
2023/06/03 05:05:44;;;;;;;8.00;0.82;;;;;;;11.48;45.61;98308.44;10595802;27;20059;-70
2023/06/03 05:11:08;;;;;;;;;;;;;;;11.73;44.69;98316.53;10596956;27;20062;-70
2023/06/03 05:16:29;;;;;;;7.07;0.90;;;;;;;12.10;44.06;98311.50;10595429;27;19926;-70
2023/06/03 05:21:50;;;;;;;4.45;0.90;;;;;;;12.50;43.85;98307.25;10594905;27;20161;-70
2023/06/03 05:27:11;;;;;;;1.95;0.60;;;;;;;12.94;43.14;98297.63;10624768;27;20035;-70
2023/06/03 05:32:32;;;;;;;4.70;0.80;;;;;;;13.26;41.54;98296.25;10580640;27;20549;-70
2023/06/03 05:37:53;;;;;;;8.02;0.90;;;;;;;13.68;41.33;98303.91;10595008;27;20066;-70
2023/06/03 05:43:15;;;;;;;7.93;0.90;;;;;;;14.13;39.42;98306.72;10580946;27;20066;-70
2023/06/03 05:48:37;;;;;;;4.20;0.80;;;;;;;14.47;39.40;98297.63;10580954;27;20078;-70
2023/06/03 05:53:59;;;;;;;6.28;0.88;;;;;;;14.68;38.72;98307.31;10594869;28;20077;-70
2023/06/03 05:59:20;;;;;;;2.22;0.52;;;;;;;15.12;37.95;98303.59;10566624;28;20047;-70
2023/06/03 06:04:41;;;;;;;2.58;0.60;;;;;;;15.54;37.25;98302.53;10594604;28;20551;-71
2023/06/03 06:10:02;;;;;;;3.35;1.00;;;;;;;16.03;36.91;98313.72;10625507;27;20043;-70
2023/06/03 06:15:27;;;;;;;8.32;0.90;;;;;;;16.29;35.14;98326.41;10588654;27;20062;-70
2023/06/03 06:20:49;;;;;;;3.92;0.75;;;;;;;16.63;34.72;98321.16;10588546;27;20067;-71
2023/06/03 06:26:13;;;;;;;4.03;0.88;;;;;;;16.81;33.95;98316.53;10587863;27;20043;-71
2023/06/03 06:31:34;;;;;;;3.85;0.60;;;;;;;17.01;33.67;98324.56;10601804;27;20039;-70
2023/06/03 06:36:55;;;;;;;5.43;1.13;;;;;;;17.29;32.98;98325.28;10615818;27;20570;-70
2023/06/03 06:42:32;;;;;;;5.55;0.80;;;;;;;17.45;31.77;98334.53;10601904;27;20574;-70
2023/06/03 06:48:08;;;;;;;5.13;0.90;;;;;;;17.96;32.45;98337.78;10602752;27;20449;-71
2023/06/03 06:53:34;;;;;;;4.82;0.75;;;;;;;18.49;31.67;98333.88;10601350;27;20043;-70
2023/06/03 06:59:00;;;;;;;4.97;1.00;;;;;;;18.99;30.30;98337.53;10588177;27;20093;-71
2023/06/03 07:04:21;;;;;;;3.92;0.82;;;;;;;19.20;30.10;98341.97;10600254;27;20522;-71
2023/06/03 07:09:42;;;;;;;4.10;0.95;;;;;;;19.49;29.13;98327.66;10600339;27;20119;-70
2023/06/03 07:15:04;;;;;;;5.53;0.90;;;;;;;19.30;29.37;98328.25;10600183;27;20119;-70
2023/06/03 07:20:29;;;;;;;4.00;0.80;;;;;;;19.56;29.64;98323.00;10599621;27;20172;-71
2023/06/03 07:25:51;;;;;;;4.07;0.88;;;;;;;19.95;29.23;98316.78;10599419;27;20110;-71
2023/06/03 07:31:12;;;;;;;3.17;0.90;;;;;;;20.06;28.56;98318.66;10585369;27;20114;-71
2023/06/03 07:36:36;;;;;;;3.08;0.68;;;;;;;20.06;28.54;98320.75;10600601;27;20068;-71
2023/06/03 07:41:58;;;;;;;5.35;0.80;;;;;;;20.19;27.20;98314.94;10599391;27;20070;-71
2023/06/03 07:47:27;;;;;;;7.15;0.93;;;;;;;20.39;27.31;98319.91;10600227;27;20492;-71
2023/06/03 07:52:48;;;;;;;3.78;0.68;;;;;;;20.55;25.84;98320.53;10613294;27;20059;-70
2023/06/03 07:58:10;;;;;;;4.50;0.70;;;;;;;20.97;25.39;98317.81;10598353;27;20043;-70
2023/06/03 08:03:31;;;;;;;2.33;0.60;;;;;;;20.98;24.15;98320.00;10598604;27;20528;-70
2023/06/03 08:08:52;;;;;;;3.20;0.40;;;;;;;20.69;23.68;98312.56;10598224;27;20118;-70
2023/06/03 08:14:14;;;;;;;7.35;0.50;;;;;;;20.48;23.09;98304.69;10598040;27;20043;-71
2023/06/03 08:19:36;;;;;;;4.30;0.50;;;;;;;20.25;23.12;98312.31;10597880;27;20123;-71
2023/06/03 08:24:57;;;;;;;2.90;0.40;;;;;;;20.27;22.73;98323.75;10597536;27;20038;-71
2023/06/03 08:30:20;;;;;;;4.70;0.40;;;;;;;20.61;22.07;98317.22;10597038;27;20396;-71
2023/06/03 08:35:43;;;;;;;2.50;0.40;;;;;;;20.10;22.32;98315.25;10597682;27;20121;-70
2023/06/03 08:41:03;;;;;;;1.05;0.38;;;;;;;19.93;22.82;98308.22;10596814;27;20069;-70
2023/06/03 08:46:34;;;;;;;1.50;0.30;;;;;;;19.98;22.87;98307.03;10596465;27;20062;-71
2023/06/03 08:51:55;;;;;;;1.42;0.38;;;;;;;20.42;21.94;98312.94;10610908;27;20047;-71
2023/06/03 08:57:19;;;;;;;4.63;0.40;;;;;;;20.69;21.58;98306.19;10581883;27;20114;-70
2023/06/03 09:02:40;;;;;;;4.95;0.35;;;;;;;20.80;21.39;98308.72;10582383;27;20071;-71
2023/06/03 09:08:01;;;;;;;3.38;0.40;;;;;;;20.96;21.14;98310.69;10596218;27;20043;-71
2023/06/03 09:13:22;;;;;;;4.18;0.40;;;;;;;21.07;20.33;98313.22;10595308;27;20046;-70
2023/06/03 09:18:43;;;;;;;1.38;0.30;;;;;;;21.05;20.94;98313.16;10595173;27;20122;-70
2023/06/03 09:24:03;;;;;;;2.80;0.40;;;;;;;20.36;20.82;98295.69;10609054;27;20549;-70
2023/06/03 09:29:24;;;;;;;2.50;0.50;;;;;;;20.57;21.18;98295.13;10595043;27;20039;-70
2023/06/03 09:34:44;;;;;;;3.65;0.60;;;;;;;20.97;20.97;98292.28;10594862;27;20071;-71
2023/06/03 09:40:07;;;;;;;3.33;0.40;;;;;;;21.24;19.69;98297.50;10594316;27;20488;-71
2023/06/03 09:45:29;;;;;;;3.30;0.50;;;;;;;21.58;19.71;98292.25;10580544;27;20043;-70
2023/06/03 09:50:50;;;;;;;1.47;0.40;;;;;;;21.42;19.62;98286.78;10623982;27;20123;-70
2023/06/03 09:56:24;;;;;;;4.05;0.68;;;;;;;21.33;18.73;98278.66;10608430;28;20047;-71
2023/06/03 10:01:48;;;;;;;1.65;0.40;;;;;;;21.27;18.87;98281.28;10566251;28;20035;-70
2023/06/03 10:07:13;;;;;;;1.98;0.50;;;;;;;20.99;18.58;98281.00;10594749;28;20506;-70
2023/06/03 10:12:34;;;;;;;4.78;0.40;;;;;;;21.05;18.33;98275.53;10579952;28;20063;-70
2023/06/03 10:17:54;;;;;;;1.10;0.30;;;;;;;20.92;18.42;98282.16;10593782;28;20077;-70
2023/06/03 10:23:15;;;;;;;2.25;0.52;;;;;;;21.06;18.55;98265.66;10608019;28;20127;-69
2023/06/03 10:28:36;;;;;;;5.45;0.50;;;;;;;20.66;18.72;98260.00;10592919;28;20069;-70
2023/06/03 10:33:57;;;;;;;1.63;0.30;;;;;;;21.27;19.52;98264.97;10593843;28;20071;-71
2023/06/03 10:39:18;;;;;;;4.57;0.40;;;;;;;20.62;19.15;98265.50;10593992;28;20068;-70
2023/06/03 10:44:39;;;;;;;2.30;0.50;;;;;;;20.63;18.99;98263.41;10607766;28;20118;-71
2023/06/03 10:50:25;;;;;;;3.17;0.40;;;;;;;20.53;19.79;98250.31;10593627;28;20039;-71
2023/06/03 10:56:26;;;;;;;3.72;0.40;;;;;;;20.88;20.17;98245.16;10607455;27;20058;-71
2023/06/03 11:02:02;;;;;;;3.47;0.43;;;;;;;21.15;18.66;98248.25;10630223;27;20392;-71
2023/06/03 11:07:42;;;;;;;0.80;0.30;;;;;;;21.44;18.26;98254.88;10586725;27;20063;-70
2023/06/03 11:13:03;;;;;;;3.22;0.50;;;;;;;21.27;18.62;98242.25;10600348;27;20050;-70
2023/06/03 11:18:24;;;;;;;1.70;0.50;;;;;;;21.66;18.89;98252.03;10599905;27;20039;-70
2023/06/03 11:23:45;;;;;;;1.42;0.50;;;;;;;21.92;18.58;98237.94;10599884;27;20042;-71
2023/06/03 11:29:06;;;;;;;1.42;0.30;;;;;;;22.08;17.87;98232.03;10600021;27;20495;-70
2023/06/03 11:34:28;;;;;;;3.33;0.40;;;;;;;21.35;17.47;98239.69;10599417;27;20082;-70
2023/06/03 11:40:08;;;;;;;1.35;0.40;;;;;;;20.76;18.65;98240.50;10585167;27;20050;-71
2023/06/03 11:45:29;;;;;;;3.38;0.55;;;;;;;21.37;18.60;98228.41;10613593;27;20042;-71
2023/06/03 11:50:56;;;;;;;2.30;0.45;;;;;;;21.40;18.13;98238.44;10598863;27;20066;-71
2023/06/03 11:56:17;;;;;;;4.18;0.43;;;;;;;21.70;18.68;98221.63;10599490;27;20058;-71
2023/06/03 12:02:03;;;;;;;1.70;0.50;;;;;;;21.73;19.11;98219.59;10612379;27;20067;-71
2023/06/03 12:07:24;;;;;;;3.45;0.40;;;;;;;21.67;19.70;98216.56;10569560;28;20036;-70
2023/06/03 12:12:51;;;;;;;1.27;0.70;;;;;;;21.85;19.64;98217.13;10555451;28;20040;-70
2023/06/03 12:18:12;;;;;;;1.05;0.40;;;;;;;21.37;19.88;98219.88;10555714;28;20043;-71
2023/06/03 12:23:33;;;;;;;1.83;0.40;;;;;;;21.00;21.28;98214.34;10555070;28;20388;-70
2023/06/03 12:29:06;;;;;;;3.20;0.50;;;;;;;21.18;20.70;98205.72;10540475;28;20036;-70
2023/06/03 12:34:34;;;;;;;2.10;0.50;;;;;;;20.73;20.72;98204.91;10569186;28;20043;-71
2023/06/03 12:39:55;;;;;;;4.60;0.50;;;;;;;21.12;20.76;98195.59;10540263;28;20132;-70
2023/06/03 12:45:25;;;;;;;4.35;0.50;;;;;;;21.32;20.42;98181.38;10526422;28;20040;-70
2023/06/03 12:50:46;;;;;;;1.17;0.40;;;;;;;21.26;20.37;98184.03;10540663;28;20040;-71
2023/06/03 12:56:07;;;;;;;4.10;0.52;;;;;;;21.47;19.97;98176.88;10539299;28;20059;-70
2023/06/03 13:01:28;;;;;;;2.13;0.77;;;;;;;21.86;19.57;98161.75;10539396;28;20048;-71
2023/06/03 13:06:48;;;;;;;1.42;0.40;;;;;;;21.56;20.11;98169.34;10590465;27;20077;-70
2023/06/03 13:12:11;;;;;;;3.87;0.57;;;;;;;20.74;21.09;98165.94;10581602;27;20401;-70
2023/06/03 13:17:33;;;;;;;2.50;0.40;;;;;;;20.86;21.10;98164.25;10609512;27;20062;-71
2023/06/03 13:22:54;;;;;;;1.73;0.50;;;;;;;21.08;20.90;98158.59;10594737;27;20046;-70
2023/06/03 13:28:16;;;;;;;6.63;0.60;;;;;;;20.84;20.91;98158.53;10580767;27;20035;-70
2023/06/03 13:33:37;;;;;;;1.38;0.50;;;;;;;20.95;20.91;98153.19;10594763;27;20052;-70
2023/06/03 13:38:59;;;;;;;2.03;0.47;;;;;;;21.18;20.62;98140.44;10609126;27;20046;-70
2023/06/03 13:44:20;;;;;;;2.90;0.60;;;;;;;21.11;20.48;98150.84;10608783;27;20035;-71
2023/06/03 13:49:41;;;;;;;1.92;0.50;;;;;;;21.09;20.64;98147.97;10608616;27;20046;-70
2023/06/03 13:55:03;;;;;;;3.17;0.50;;;;;;;20.74;20.31;98143.97;10594329;28;20050;-71
2023/06/03 14:00:24;;;;;;;0.93;0.40;;;;;;;20.67;20.49;98139.50;10594199;28;20065;-71
2023/06/03 14:05:46;;;;;;;4.57;0.50;;;;;;;20.70;20.69;98143.84;10593610;28;20055;-71
2023/06/03 14:11:07;;;;;;;2.33;0.60;;;;;;;20.86;20.95;98130.22;10608449;28;20035;-70
2023/06/03 14:16:28;;;;;;;1.30;0.50;;;;;;;21.04;21.04;98135.75;10623342;28;20099;-70
2023/06/03 14:21:50;;;;;;;1.63;0.40;;;;;;;21.00;20.92;98123.53;10579887;28;20441;-70
2023/06/03 14:27:11;;;;;;;1.42;0.55;;;;;;;21.01;20.87;98114.38;10593566;28;20043;-70
2023/06/03 14:32:32;;;;;;;2.92;0.35;;;;;;;21.20;21.04;98118.50;10597698;27;20046;-71
2023/06/03 14:37:53;;;;;;;3.38;0.47;;;;;;;21.32;20.67;98101.88;10601531;27;20035;-70
2023/06/03 14:43:15;;;;;;;1.50;0.40;;;;;;;20.96;20.54;98112.78;10615469;27;20074;-70
2023/06/03 14:48:36;;;;;;;1.88;0.40;;;;;;;20.56;20.49;98095.88;10601328;27;20049;-70
2023/06/03 14:53:57;;;;;;;1.63;0.40;;;;;;;20.41;21.01;98096.03;10615400;27;20477;-71
2023/06/03 14:59:18;;;;;;;6.05;0.40;;;;;;;20.35;21.32;98082.34;10600472;27;20035;-71
2023/06/03 15:04:39;;;;;;;2.10;0.98;;;;;;;20.33;21.32;98084.41;10600510;27;20054;-71
2023/06/03 15:10:00;;;;;;;2.63;0.70;;;;;;;20.32;21.69;98071.59;10586265;27;20047;-70
2023/06/03 15:15:21;;;;;;;1.95;0.55;;;;;;;20.20;21.88;98061.31;10600030;27;20153;-70
2023/06/03 15:20:43;;;;;;;1.83;0.52;;;;;;;20.01;22.10;98076.94;10614492;27;20476;-70
2023/06/03 15:26:04;;;;;;;1.85;0.50;;;;;;;19.84;22.01;98077.72;10613717;27;20122;-70
2023/06/03 15:31:25;;;;;;;1.70;0.63;;;;;;;19.80;22.19;98069.09;10599598;27;20050;-71
2023/06/03 15:36:47;;;;;;;2.50;0.50;;;;;;;19.85;22.07;98061.47;10628767;27;20046;-70
2023/06/03 15:42:08;;;;;;;3.20;0.50;;;;;;;19.67;22.05;98059.41;10612510;27;20073;-71
2023/06/03 15:47:31;;;;;;;1.67;0.45;;;;;;;19.56;22.26;98051.19;10599730;27;20039;-70
2023/06/03 15:52:54;;;;;;;1.83;0.60;;;;;;;19.55;21.85;98058.94;10612757;27;20176;-70
2023/06/03 15:58:15;;;;;;;5.20;1.00;;;;;;;19.38;22.03;98051.94;10599064;27;20040;-70
2023/06/03 16:03:36;;;;;;;2.50;0.90;;;;;;;19.31;22.28;98046.72;10612033;27;20075;-70
2023/06/03 16:08:58;;;;;;;2.33;0.65;;;;;;;19.16;22.27;98045.44;10627799;27;20107;-71
2023/06/03 16:14:19;;;;;;;3.13;0.50;;;;;;;19.13;22.47;98053.13;10611870;27;20125;-71
2023/06/03 16:19:41;;;;;;;4.20;0.70;;;;;;;19.16;22.46;98043.34;10612198;27;20130;-70
2023/06/03 16:25:04;;;;;;;2.85;0.93;;;;;;;19.13;22.63;98036.16;10597402;27;20047;-70
2023/06/03 16:30:25;;;;;;;2.67;0.70;;;;;;;19.17;22.59;98039.13;10611390;27;20080;-70
2023/06/03 16:35:46;;;;;;;2.28;0.60;;;;;;;19.06;22.67;98028.78;10611019;27;20043;-70
2023/06/03 16:41:07;;;;;;;2.50;0.73;;;;;;;19.03;22.95;98030.09;10611124;27;20039;-70
2023/06/03 16:46:28;;;;;;;4.15;0.68;;;;;;;18.82;23.44;98030.69;10610911;27;20114;-70
2023/06/03 16:51:50;;;;;;;4.65;0.70;;;;;;;18.69;23.44;98025.91;10596324;27;20047;-70
2023/06/03 16:57:11;;;;;;;2.88;0.60;;;;;;;18.71;23.34;98034.47;10582257;27;20100;-70
2023/06/03 17:02:32;;;;;;;2.67;0.70;;;;;;;18.78;23.76;98033.34;10595613;27;20039;-71
2023/06/03 17:07:53;;;;;;;1.88;0.60;;;;;;;18.79;23.71;98034.78;10595421;27;20070;-70
2023/06/03 17:13:15;;;;;;;2.47;0.95;;;;;;;18.65;23.70;98037.06;10609768;27;20043;-71
2023/06/03 17:18:36;;;;;;;4.38;0.60;;;;;;;18.54;23.77;98035.88;10609755;27;20521;-71
2023/06/03 17:23:57;;;;;;;3.92;0.60;;;;;;;18.50;24.00;98027.22;10595057;27;20388;-71
2023/06/03 17:29:18;;;;;;;2.75;0.80;;;;;;;18.43;24.13;98029.09;10609167;27;20039;-70
2023/06/03 17:34:39;;;;;;;1.50;0.60;;;;;;;18.32;24.38;98021.56;10624479;27;20404;-70
2023/06/03 17:40:00;;;;;;;4.75;0.60;;;;;;;18.33;24.20;98031.47;10594744;27;20369;-70
2023/06/03 17:45:21;;;;;;;5.28;0.60;;;;;;;18.26;24.40;98029.78;10608656;27;20055;-70
2023/06/03 17:50:41;;;;;;;5.10;0.70;;;;;;;18.19;24.44;98034.44;10594612;27;20043;-70
2023/06/03 17:56:02;;;;;;;2.75;0.70;;;;;;;18.05;24.71;98025.38;10594379;28;20445;-70
2023/06/03 18:01:25;;;;;;;;;;;;;;;17.92;25.54;98029.75;10609423;28;20465;-71
2023/06/03 18:06:46;;;;;;;6.03;0.65;;;;;;;17.83;25.35;98032.88;10597073;27;19919;-70
2023/06/03 18:12:07;;;;;;;1.92;0.50;;;;;;;17.70;25.70;98034.44;10617190;27;20043;-70
2023/06/03 18:17:28;;;;;;;2.00;0.80;;;;;;;17.59;25.76;98026.88;10616763;27;20070;-70
2023/06/03 18:22:49;;;;;;;2.45;1.10;;;;;;;17.45;26.02;98035.41;10616625;27;20035;-70
2023/06/03 18:28:10;;;;;;;3.42;0.60;;;;;;;17.35;26.32;98035.69;10602201;27;20055;-70
2023/06/03 18:33:31;;;;;;;3.10;0.50;;;;;;;17.23;26.46;98043.59;10602114;27;20062;-70
2023/06/03 18:38:52;;;;;;;3.75;0.63;;;;;;;17.10;26.86;98055.69;10587807;27;20070;-72
2023/06/03 18:44:12;;;;;;;2.58;0.77;;;;;;;16.99;27.15;98053.75;10587048;27;20084;-70
2023/06/03 18:49:33;;;;;;;5.13;0.73;;;;;;;16.84;27.43;98055.16;10631110;27;20114;-70
2023/06/03 18:54:54;;;;;;;1.60;0.70;;;;;;;16.72;27.74;98055.31;10615357;27;20043;-70
2023/06/03 19:00:15;;;;;;;2.83;0.90;;;;;;;16.53;27.87;98067.03;10615121;27;20537;-70
2023/06/03 19:05:35;;;;;;;3.40;1.23;;;;;;;16.43;28.06;98074.97;10614432;27;20130;-69
2023/06/03 19:10:56;;;;;;;4.75;1.70;;;;;;;16.33;28.27;98072.38;10600413;27;20488;-70
2023/06/03 19:16:17;;;;;;;2.15;1.10;;;;;;;16.27;28.66;98081.25;10600443;27;20054;-70
2023/06/03 19:21:38;;;;;;;4.30;1.48;;;;;;;16.20;28.70;98081.56;10613748;27;20042;-70
2023/06/03 19:26:59;;;;;;;2.97;1.17;;;;;;;16.07;29.22;98097.13;10614892;27;20476;-70
2023/06/03 19:32:19;;;;;;;4.30;1.60;;;;;;;15.98;29.60;98104.41;10614098;27;20044;-70
2023/06/03 19:37:40;;;;;;;5.75;1.35;;;;;;;15.90;29.44;98112.41;10614023;27;20097;-70
2023/06/03 19:43:01;;;;;;;4.47;1.17;;;;;;;15.84;30.12;98114.22;10585451;27;20043;-70
2023/06/03 19:48:23;;;;;;;2.50;0.98;;;;;;;15.78;30.43;98122.31;10598994;27;20066;-70
2023/06/03 19:53:44;;;;;;;3.95;1.20;;;;;;;15.73;31.05;98127.75;10599705;27;20063;-70
2023/06/03 19:59:05;;;;;;;5.65;1.20;;;;;;;15.69;31.51;98130.31;10598684;27;20039;-70
2023/06/03 20:04:26;;;;;;;2.95;0.93;;;;;;;15.59;32.05;98129.75;10583979;27;20047;-70
2023/06/03 20:09:46;;;;;;;5.30;1.25;;;;;;;15.49;32.79;98126.41;10597951;27;20067;-70
2023/06/03 20:15:07;;;;;;;3.00;1.35;;;;;;;15.42;32.99;98138.66;10598193;27;20043;-70
2023/06/03 20:20:28;;;;;;;3.97;1.05;;;;;;;15.30;33.57;98132.38;10597808;27;20066;-70
2023/06/03 20:25:49;;;;;;;3.50;0.90;;;;;;;15.20;34.42;98134.63;10583388;27;20114;-70
2023/06/03 20:31:10;;;;;;;3.70;1.25;;;;;;;15.14;34.29;98138.53;10583320;27;20039;-70
2023/06/03 20:36:30;;;;;;;2.75;0.73;;;;;;;15.05;34.88;98139.44;10597248;27;20050;-70
2023/06/03 20:41:51;;;;;;;3.30;0.82;;;;;;;14.92;35.14;98145.72;10626663;27;20118;-70
2023/06/03 20:47:13;;;;;;;3.25;0.90;;;;;;;14.80;35.30;98136.63;10596567;27;20122;-70
2023/06/03 20:52:34;;;;;;;3.00;1.05;;;;;;;14.74;35.77;98153.13;10596911;27;20088;-70
2023/06/03 20:57:55;;;;;;;3.25;0.80;;;;;;;14.67;35.95;98145.69;10582418;27;20039;-70
2023/06/03 21:03:16;;;;;;;1.98;0.68;;;;;;;14.56;36.35;98150.72;10581967;27;20373;-70
2023/06/03 21:08:36;;;;;;;3.95;0.70;;;;;;;14.48;36.67;98147.44;10625332;27;20066;-70
2023/06/03 21:13:57;;;;;;;2.40;0.75;;;;;;;14.41;36.79;98151.22;10595583;27;20160;-70
2023/06/03 21:19:18;;;;;;;4.30;0.82;;;;;;;14.33;36.75;98145.84;10610012;27;20054;-70
2023/06/03 21:24:39;;;;;;;5.13;0.90;;;;;;;14.25;36.78;98150.25;10581027;27;20119;-70
2023/06/03 21:30:00;;;;;;;2.50;0.70;;;;;;;14.16;36.99;98153.91;10624695;27;20074;-70
2023/06/03 21:35:21;;;;;;;1.42;0.80;;;;;;;14.08;37.36;98159.03;10594886;27;20468;-70
2023/06/03 21:40:42;;;;;;;1.83;0.70;;;;;;;14.01;37.61;98150.25;10623719;27;20515;-70
2023/06/03 21:46:02;;;;;;;2.70;0.90;;;;;;;13.96;37.43;98142.91;10594925;27;20100;-70
2023/06/03 21:51:23;;;;;;;2.67;1.10;;;;;;;13.92;37.64;98150.38;10608769;27;20110;-70
2023/06/03 21:56:44;;;;;;;1.85;0.60;;;;;;;13.87;37.77;98154.25;10608620;28;20043;-70
2023/06/03 22:02:05;;;;;;;2.10;0.70;;;;;;;13.85;37.65;98151.34;10594272;28;20536;-70
2023/06/03 22:07:27;;;;;;;1.95;0.73;;;;;;;13.75;37.86;98152.19;10594249;28;20043;-70
2023/06/03 22:12:47;;;;;;;2.63;0.98;;;;;;;13.73;37.92;98152.06;10608242;28;20074;-70
2023/06/03 22:18:08;;;;;;;5.50;1.35;;;;;;;13.71;37.92;98154.03;10579817;28;20118;-70
2023/06/03 22:23:29;;;;;;;3.28;0.80;;;;;;;13.66;38.21;98143.88;10580109;28;20066;-70
2023/06/03 22:28:50;;;;;;;2.40;0.70;;;;;;;13.60;38.38;98132.28;10608261;28;20039;-70
2023/06/03 22:34:10;;;;;;;2.22;0.80;;;;;;;13.53;38.75;98133.25;10594988;28;20110;-71
2023/06/03 22:39:31;;;;;;;3.33;0.80;;;;;;;13.47;38.84;98136.41;10594172;28;20062;-70
2023/06/03 22:44:52;;;;;;;2.40;0.80;;;;;;;13.40;38.72;98135.28;10594529;28;20407;-70
2023/06/03 22:50:12;;;;;;;2.78;1.10;;;;;;;13.24;38.89;98131.47;10594125;28;20043;-70
2023/06/03 22:55:33;;;;;;;6.28;0.90;;;;;;;13.14;39.45;98137.16;10630835;27;20039;-70
2023/06/03 23:01:18;;;;;;;4.10;0.93;;;;;;;13.07;39.87;98135.28;10601159;27;20051;-70
2023/06/03 23:06:39;;;;;;;3.70;0.80;;;;;;;12.99;40.25;98136.84;10501814;28;20127;-70
2023/06/03 23:12:00;;;;;;;5.32;0.93;;;;;;;12.88;40.18;98143.84;10474532;28;20477;-70
2023/06/03 23:17:20;;;;;;;1.67;0.73;;;;;;;12.76;40.73;98129.78;10474294;28;20064;-70
2023/06/03 23:22:41;;;;;;;4.97;0.90;;;;;;;12.71;40.45;98128.06;10460179;28;20135;-70
2023/06/03 23:28:02;;;;;;;2.25;1.13;;;;;;;12.67;40.48;98129.88;10473681;28;20124;-70
2023/06/03 23:33:22;;;;;;;1.90;0.73;;;;;;;12.56;40.64;98126.41;10473805;28;20047;-70
2023/06/03 23:38:44;;;;;;;2.63;0.70;;;;;;;12.51;41.04;98129.53;10487512;28;20079;-70
2023/06/03 23:44:08;;;;;;;3.47;0.90;;;;;;;12.46;41.29;98127.81;10502109;28;20037;-70
2023/06/03 23:49:29;;;;;;;1.85;0.80;;;;;;;12.41;41.40;98120.47;10459236;28;20611;-70
2023/06/03 23:54:49;;;;;;;3.42;0.88;;;;;;;12.39;41.75;98123.88;10486762;28;20178;-70
